Terminal Aerodrome Forecast
Issued by NWS Pocatello, ID

Home | Current Version | Previous Version | Text Only | Print | Product List | Glossary On
Versions: 1 2 3 4 5 6 7 8 9 10 11 12
000
FTUS45 KPIH 251100
TAFBYI
TAF
KBYI 251120Z 2512/2612 VRB05KT P6SM SKC
     FM251700 16011KT P6SM SCT200
     FM252000 22012G22KT P6SM BKN200
     FM260400 24015KT P6SM OVC120=

USA.gov is the U.S. government's official web portal to all federal, state and local government web resources and services.